Time;durP1;ratioP1;P1;durP2;ratioP2;P2;SDS_P1;SDS_P2;PMS_P1;PMS_P2;Temp;Humidity;BMP_temperature;BMP_pressure;BME280_temperature;BME280_humidity;BME280_pressure;Samples;Min_cycle;Max_cycle;Signal;HPM_P1;HPM_P2
2021/05/27 00:00:47;;;;;;;7.47;3.80;;;;;;;14.71;63.95;98476.16;4985509;28;20036;-61
2021/05/27 00:03:12;;;;;;;6.68;3.70;;;;;;;14.72;63.63;98483.03;4981411;28;20749;-63
2021/05/27 00:05:37;;;;;;;8.13;3.80;;;;;;;14.70;63.55;98464.06;4985159;28;20081;-62
2021/05/27 00:08:04;;;;;;;7.88;3.70;;;;;;;14.76;63.98;98472.00;4984217;28;20031;-61
2021/05/27 00:10:31;;;;;;;9.45;3.80;;;;;;;14.64;64.21;98478.66;4980623;28;20477;-60
2021/05/27 00:12:57;;;;;;;6.68;3.33;;;;;;;14.51;64.73;98473.13;4963003;28;20518;-61
2021/05/27 00:15:26;;;;;;;7.28;3.25;;;;;;;14.47;64.77;98484.94;4964831;28;20405;-61
2021/05/27 00:17:51;;;;;;;8.88;4.47;;;;;;;14.33;64.63;98476.84;4982343;28;20457;-61
2021/05/27 00:20:17;;;;;;;7.97;4.28;;;;;;;14.16;65.24;98449.16;4971176;28;20026;-62
2021/05/27 00:22:43;;;;;;;8.95;4.00;;;;;;;14.46;65.38;98478.09;4967262;28;20141;-62
2021/05/27 00:25:10;;;;;;;7.65;4.15;;;;;;;14.44;64.90;98470.41;4988553;28;20034;-61
2021/05/27 00:27:36;;;;;;;9.40;4.10;;;;;;;14.42;64.39;98478.44;4984748;28;20058;-64
2021/05/27 00:30:03;;;;;;;7.07;4.25;;;;;;;14.39;65.24;98470.91;4986365;28;20069;-59
2021/05/27 00:32:28;;;;;;;7.88;4.45;;;;;;;14.21;64.66;98415.47;4970781;28;20117;-62
2021/05/27 00:34:53;;;;;;;8.63;4.72;;;;;;;14.48;64.82;98470.88;4982691;28;20038;-61
2021/05/27 00:37:19;;;;;;;7.93;4.53;;;;;;;14.47;65.08;98475.28;4983001;28;20812;-59
2021/05/27 00:39:44;;;;;;;11.30;5.05;;;;;;;14.39;65.85;98472.72;4978237;28;20049;-61
2021/05/27 00:42:10;;;;;;;9.45;4.45;;;;;;;14.28;65.40;98463.47;4983215;28;20050;-63
2021/05/27 00:44:35;;;;;;;10.52;5.03;;;;;;;14.13;65.96;98441.66;4985301;28;20456;-62
2021/05/27 00:47:02;;;;;;;8.98;4.40;;;;;;;14.33;65.77;98452.47;4979904;28;20041;-61
2021/05/27 00:49:28;;;;;;;9.43;4.53;;;;;;;14.27;66.11;98446.13;4969926;28;20552;-60
2021/05/27 00:51:54;;;;;;;8.45;4.53;;;;;;;14.29;66.01;98438.97;4977336;28;20047;-63
2021/05/27 00:54:20;;;;;;;10.18;4.68;;;;;;;14.28;66.21;98447.78;4975696;28;20055;-62
2021/05/27 00:56:47;;;;;;;7.10;3.67;;;;;;;14.36;65.78;98450.34;4982155;28;20026;-63
2021/05/27 00:59:13;;;;;;;7.53;4.13;;;;;;;14.09;65.65;98401.16;4985867;28;20057;-61
2021/05/27 01:01:39;;;;;;;9.25;4.05;;;;;;;14.31;65.69;98438.75;4981491;28;20037;-58
2021/05/27 01:04:04;;;;;;;9.70;4.30;;;;;;;14.18;66.09;98440.16;4982524;28;20318;-61
2021/05/27 01:06:30;;;;;;;8.75;3.90;;;;;;;14.15;66.48;98445.72;4965690;28;20083;-62
2021/05/27 01:08:56;;;;;;;8.18;4.00;;;;;;;13.87;66.64;98393.09;5011187;28;20030;-62
2021/05/27 01:11:22;;;;;;;8.48;3.80;;;;;;;14.26;66.67;98441.09;4984317;28;20034;-62
2021/05/27 01:13:48;;;;;;;9.57;4.28;;;;;;;14.18;66.74;98431.47;4968166;28;20038;-59
2021/05/27 01:16:21;;;;;;;9.75;3.95;;;;;;;14.21;66.47;98436.38;4972531;28;20034;-60
2021/05/27 01:18:47;;;;;;;6.75;3.80;;;;;;;14.08;66.83;98428.28;4977154;28;20097;-62
2021/05/27 01:21:12;;;;;;;9.55;4.07;;;;;;;14.14;66.58;98445.91;4976219;28;20476;-59
2021/05/27 01:23:38;;;;;;;7.75;3.97;;;;;;;14.01;66.73;98428.16;4960134;28;20042;-60
2021/05/27 01:26:06;;;;;;;8.35;3.70;;;;;;;14.10;67.08;98447.22;4992786;28;20034;-61
2021/05/27 01:28:34;;;;;;;9.55;3.70;;;;;;;14.02;67.13;98451.50;4977538;28;20921;-61
2021/05/27 01:31:01;;;;;;;7.00;3.65;;;;;;;13.74;67.14;98393.63;4975263;28;20034;-61
2021/05/27 01:33:27;;;;;;;7.70;3.90;;;;;;;14.01;67.55;98451.69;4980319;28;20562;-61
2021/05/27 01:35:56;;;;;;;7.03;3.55;;;;;;;14.01;67.68;98444.63;4985572;28;20030;-61
2021/05/27 01:38:24;;;;;;;6.03;3.60;;;;;;;13.87;68.12;98421.03;5000189;28;20037;-62
2021/05/27 01:40:51;;;;;;;11.15;4.07;;;;;;;14.03;68.08;98442.66;4984252;28;20472;-60
2021/05/27 01:43:17;;;;;;;8.25;3.72;;;;;;;14.05;67.53;98445.13;4979969;28;20050;-62
2021/05/27 01:45:43;;;;;;;7.75;3.78;;;;;;;13.99;67.48;98448.41;4954235;28;20645;-59
2021/05/27 01:48:08;;;;;;;7.22;3.67;;;;;;;14.07;67.41;98450.97;4967734;28;20043;-60
2021/05/27 01:50:34;;;;;;;7.90;3.95;;;;;;;13.89;67.39;98417.28;4974156;28;20026;-60
2021/05/27 01:53:04;;;;;;;8.73;3.92;;;;;;;13.96;68.63;98454.81;4978913;28;20035;-61
2021/05/27 01:55:30;;;;;;;;;;;;;;;13.99;69.36;98440.59;4979777;28;20053;-60
2021/05/27 01:57:56;;;;;;;6.63;3.17;;;;;;;13.95;69.42;98436.69;4955325;28;20420;-62
2021/05/27 02:00:22;;;;;;;6.68;3.95;;;;;;;14.06;69.24;98445.94;4980164;28;20533;-60
2021/05/27 02:02:48;;;;;;;8.05;3.53;;;;;;;14.14;69.22;98444.09;4979680;28;20030;-59
2021/05/27 02:05:13;;;;;;;7.95;3.47;;;;;;;14.07;69.31;98439.72;4973309;28;20820;-62
2021/05/27 02:07:39;;;;;;;6.97;3.65;;;;;;;14.14;69.16;98441.47;4980613;28;20109;-61
2021/05/27 02:10:06;;;;;;;9.95;3.42;;;;;;;13.93;69.38;98400.25;4980343;28;20034;-60
2021/05/27 02:12:31;;;;;;;7.65;3.50;;;;;;;14.01;69.54;98442.03;4981366;28;20037;-62
2021/05/27 02:14:57;;;;;;;7.68;3.67;;;;;;;13.81;69.53;98396.38;4978213;28;20034;-62
2021/05/27 02:17:22;;;;;;;7.43;3.22;;;;;;;13.60;70.99;98382.13;4980335;28;20035;-62
2021/05/27 02:19:48;;;;;;;5.40;3.08;;;;;;;13.93;71.18;98430.81;4980435;28;20104;-62
2021/05/27 02:22:13;;;;;;;8.07;3.13;;;;;;;13.94;69.75;98416.75;4973225;28;20756;-60
2021/05/27 02:24:38;;;;;;;7.25;3.38;;;;;;;14.00;69.81;98418.66;4947114;28;20045;-61
2021/05/27 02:27:04;;;;;;;6.30;3.22;;;;;;;13.99;69.40;98409.22;5011125;28;20533;-61
2021/05/27 02:29:29;;;;;;;5.38;2.97;;;;;;;14.10;69.28;98410.63;4977123;28;20036;-60
2021/05/27 02:31:55;;;;;;;6.45;3.28;;;;;;;14.04;69.37;98412.94;4984453;28;20359;-61
2021/05/27 02:34:20;;;;;;;7.13;3.22;;;;;;;13.96;69.52;98409.53;4974851;28;20031;-63
2021/05/27 02:36:46;;;;;;;8.02;3.08;;;;;;;14.02;68.91;98412.31;4998716;28;20465;-62
2021/05/27 02:39:12;;;;;;;6.20;3.30;;;;;;;14.04;69.47;98412.13;4977862;28;20117;-62
2021/05/27 02:41:37;;;;;;;7.97;3.30;;;;;;;13.95;69.30;98403.50;4981938;28;20027;-62
2021/05/27 02:44:03;;;;;;;5.72;3.40;;;;;;;13.89;68.73;98406.81;4980749;28;20084;-62
2021/05/27 02:46:28;;;;;;;6.05;3.10;;;;;;;13.72;69.43;98411.28;4977403;28;20832;-60
2021/05/27 02:48:54;;;;;;;7.15;3.38;;;;;;;13.60;69.54;98405.63;4980198;28;20270;-61
2021/05/27 02:51:19;;;;;;;5.85;3.35;;;;;;;13.48;70.38;98398.31;4975594;28;20037;-61
2021/05/27 02:53:45;;;;;;;7.65;3.80;;;;;;;13.53;70.52;98409.91;4986078;28;20030;-59
2021/05/27 02:56:11;;;;;;;7.00;3.42;;;;;;;13.64;70.52;98406.91;4995044;28;20030;-62
2021/05/27 02:58:36;;;;;;;5.78;3.40;;;;;;;13.50;70.76;98406.81;4982112;28;20078;-61
2021/05/27 03:01:01;;;;;;;8.32;3.80;;;;;;;13.27;70.51;98366.53;4966969;28;20632;-60
2021/05/27 03:03:27;;;;;;;6.57;3.47;;;;;;;13.42;71.17;98408.47;4963760;28;20022;-62
2021/05/27 03:05:53;;;;;;;7.28;3.58;;;;;;;13.44;71.42;98406.50;4963943;28;20487;-63
2021/05/27 03:08:18;;;;;;;6.47;3.45;;;;;;;13.06;71.72;98348.78;4979838;28;20520;-62
2021/05/27 03:10:44;;;;;;;6.40;3.17;;;;;;;13.49;71.13;98402.56;4980609;28;20030;-60
2021/05/27 03:13:09;;;;;;;7.97;3.88;;;;;;;13.06;71.48;98354.00;4977961;28;20035;-61
2021/05/27 03:15:36;;;;;;;8.40;3.50;;;;;;;13.30;71.49;98391.47;4978288;28;20026;-62
2021/05/27 03:18:06;;;;;;;6.65;3.17;;;;;;;13.02;71.59;98349.31;4981193;28;20452;-63
2021/05/27 03:20:32;;;;;;;5.75;3.13;;;;;;;13.34;71.40;98389.38;4981540;28;20030;-62
2021/05/27 03:22:58;;;;;;;8.82;3.58;;;;;;;13.45;70.90;98383.78;4979138;28;20030;-62
2021/05/27 03:25:23;;;;;;;7.07;3.28;;;;;;;13.31;71.57;98387.13;4977997;28;20077;-61
2021/05/27 03:27:49;;;;;;;8.18;3.80;;;;;;;13.28;71.65;98370.75;4979411;28;20037;-61
2021/05/27 03:30:15;;;;;;;8.18;3.33;;;;;;;13.34;71.20;98366.69;4973700;28;20117;-61
2021/05/27 03:32:40;;;;;;;8.55;3.63;;;;;;;13.49;70.74;98376.44;4980183;28;20040;-62
2021/05/27 03:35:07;;;;;;;7.85;3.65;;;;;;;13.47;70.54;98371.41;4964373;28;20034;-61
2021/05/27 03:37:33;;;;;;;6.43;3.80;;;;;;;13.35;71.44;98376.16;4988384;28;20061;-61
2021/05/27 03:40:12;;;;;;;7.47;3.35;;;;;;;13.49;71.02;98382.50;4976763;28;20740;-59
2021/05/27 03:42:56;;;;;;;8.93;3.30;;;;;;;13.34;71.49;98382.34;4980347;28;20046;-61
2021/05/27 03:45:28;;;;;;;6.53;3.40;;;;;;;13.42;70.78;98384.94;4982224;28;20304;-61
2021/05/27 03:47:55;;;;;;;7.32;3.47;;;;;;;13.26;71.17;98362.28;4977073;28;20540;-62
2021/05/27 03:50:22;;;;;;;6.20;3.55;;;;;;;13.43;70.91;98394.44;4980688;28;20117;-62
2021/05/27 03:52:48;;;;;;;7.75;3.70;;;;;;;12.97;71.20;98348.97;4995963;28;20022;-60
2021/05/27 03:55:15;;;;;;;6.60;3.28;;;;;;;13.19;70.88;98382.19;4977308;28;20533;-61
2021/05/27 03:57:41;;;;;;;5.70;3.30;;;;;;;13.28;70.13;98386.41;4977462;28;20030;-63
2021/05/27 04:02:53;;;;;;;7.88;3.40;;;;;;;13.24;70.17;98407.81;4975505;28;20053;-60
2021/05/27 04:08:04;;;;;;;9.68;3.92;;;;;;;13.10;69.65;98377.19;4979745;28;20069;-61
2021/05/27 04:10:30;;;;;;;7.20;3.42;;;;;;;13.25;69.08;98385.94;4976878;28;20037;-59
2021/05/27 04:12:56;;;;;;;6.97;3.30;;;;;;;13.33;68.80;98400.81;4986114;28;20034;-61
2021/05/27 04:15:31;;;;;;;7.97;3.60;;;;;;;13.37;69.37;98395.09;4981643;28;20034;-61
2021/05/27 04:18:04;;;;;;;6.35;3.60;;;;;;;13.35;70.28;98397.06;4976240;28;20080;-62
2021/05/27 04:20:35;;;;;;;6.72;3.50;;;;;;;13.33;69.95;98398.22;4986234;28;20026;-61
2021/05/27 04:23:02;;;;;;;6.38;3.45;;;;;;;13.10;69.28;98366.72;4983453;28;20033;-60
2021/05/27 04:25:27;;;;;;;6.15;3.60;;;;;;;13.43;68.68;98401.44;4983037;28;20397;-61
2021/05/27 04:27:54;;;;;;;7.10;3.85;;;;;;;13.44;68.38;98408.28;4984018;28;20026;-60
2021/05/27 04:30:21;;;;;;;6.07;3.38;;;;;;;13.50;68.45;98412.84;5000525;28;20038;-58
2021/05/27 04:35:23;;;;;;;7.55;3.70;;;;;;;13.18;69.52;98379.75;4981719;28;20076;-62
2021/05/27 04:37:49;;;;;;;8.35;3.88;;;;;;;13.32;69.85;98414.84;4985547;28;20793;-62
2021/05/27 04:40:14;;;;;;;5.55;3.38;;;;;;;13.37;69.70;98404.72;4984130;28;20038;-61
2021/05/27 04:42:41;;;;;;;6.57;3.42;;;;;;;13.18;69.80;98374.53;4981138;28;20599;-61
2021/05/27 04:45:06;;;;;;;7.13;3.30;;;;;;;13.36;69.21;98403.91;4996544;28;20892;-61
2021/05/27 04:47:32;;;;;;;8.40;3.60;;;;;;;13.36;69.24;98410.91;4979023;28;20023;-62
2021/05/27 04:49:57;;;;;;;10.85;3.63;;;;;;;13.35;69.99;98417.13;4988363;28;20685;-61
2021/05/27 04:52:23;;;;;;;7.75;3.90;;;;;;;13.43;69.76;98407.50;4983535;28;20026;-63
2021/05/27 04:54:48;;;;;;;6.82;3.30;;;;;;;13.43;70.06;98399.66;4983810;28;20421;-62
2021/05/27 04:57:13;;;;;;;7.40;3.28;;;;;;;13.48;69.74;98404.34;4985653;28;20029;-60
2021/05/27 04:59:39;;;;;;;7.55;3.47;;;;;;;13.37;69.90;98382.03;4983762;28;20121;-62
2021/05/27 05:02:04;;;;;;;6.50;3.40;;;;;;;13.44;70.00;98395.25;4984040;28;20038;-61
2021/05/27 05:04:30;;;;;;;8.27;3.70;;;;;;;13.46;69.96;98391.47;4976138;28;20421;-60
2021/05/27 05:06:55;;;;;;;8.30;3.45;;;;;;;13.27;69.84;98350.88;4977777;28;20766;-63
2021/05/27 05:09:21;;;;;;;9.05;3.60;;;;;;;13.52;70.29;98397.81;4979552;28;20393;-61
2021/05/27 05:11:46;;;;;;;6.15;3.38;;;;;;;13.54;70.36;98406.28;4980961;28;20401;-60
2021/05/27 05:14:12;;;;;;;7.22;3.65;;;;;;;13.31;70.04;98355.78;4977688;28;20054;-62
2021/05/27 05:16:37;;;;;;;6.47;3.40;;;;;;;13.64;69.54;98393.84;4978116;28;20058;-63
2021/05/27 05:19:02;;;;;;;5.60;3.60;;;;;;;13.63;69.94;98399.25;4971844;28;20022;-61
2021/05/27 05:21:28;;;;;;;6.05;3.40;;;;;;;13.63;70.17;98409.69;4964174;28;20030;-61
2021/05/27 05:23:53;;;;;;;8.65;3.95;;;;;;;13.44;69.81;98379.56;4975872;28;20038;-61
2021/05/27 05:26:19;;;;;;;6.80;3.45;;;;;;;13.80;69.33;98418.28;4976101;28;20069;-60
2021/05/27 05:28:44;;;;;;;7.80;3.58;;;;;;;13.65;69.36;98408.56;4982951;28;20046;-62
2021/05/27 05:31:10;;;;;;;6.22;3.47;;;;;;;13.55;69.54;98407.94;4980332;28;20133;-61
2021/05/27 05:33:35;;;;;;;7.60;3.78;;;;;;;13.60;68.98;98404.81;4978171;28;20469;-61
2021/05/27 05:36:01;;;;;;;7.25;3.83;;;;;;;13.54;69.13;98403.66;4978752;28;20050;-60
2021/05/27 05:38:26;;;;;;;10.52;3.88;;;;;;;13.66;69.55;98411.97;4982980;28;20045;-62
2021/05/27 05:40:52;;;;;;;5.82;3.38;;;;;;;13.38;69.51;98375.84;4983605;28;20062;-61
2021/05/27 05:43:17;;;;;;;7.20;3.90;;;;;;;13.61;70.23;98416.88;4980535;28;20033;-61
2021/05/27 05:45:42;;;;;;;8.20;3.75;;;;;;;13.46;69.95;98408.94;4984363;28;20030;-61
2021/05/27 05:48:08;;;;;;;8.43;4.07;;;;;;;13.58;69.68;98425.88;4982154;28;20100;-60
2021/05/27 05:50:49;;;;;;;10.48;4.07;;;;;;;13.52;68.82;98394.38;4979479;28;20068;-61
2021/05/27 05:53:23;;;;;;;10.60;4.30;;;;;;;13.46;68.87;98380.22;4977819;28;20034;-61
2021/05/27 05:55:52;;;;;;;7.93;3.90;;;;;;;13.74;67.83;98400.66;4981218;28;20105;-61
2021/05/27 05:58:17;;;;;;;8.38;4.03;;;;;;;13.67;68.14;98376.19;4994302;28;20034;-62
2021/05/27 06:00:44;;;;;;;6.35;3.50;;;;;;;13.93;67.74;98396.84;4980931;28;20022;-61
2021/05/27 06:03:10;;;;;;;8.32;3.40;;;;;;;13.74;67.55;98362.28;4978394;28;20026;-62
2021/05/27 06:05:35;;;;;;;8.00;3.58;;;;;;;13.87;67.06;98382.63;4977260;28;20026;-61
2021/05/27 06:08:01;;;;;;;12.25;3.60;;;;;;;13.66;67.83;98375.41;4980367;28;21502;-61
2021/05/27 06:10:26;;;;;;;7.80;3.60;;;;;;;13.73;67.90;98399.06;4983194;28;20027;-60
2021/05/27 06:12:53;;;;;;;7.25;4.00;;;;;;;13.65;68.40;98415.56;4982454;28;20028;-61
2021/05/27 06:15:22;;;;;;;8.07;3.53;;;;;;;13.69;66.97;98408.19;4981300;28;20038;-61
2021/05/27 06:17:48;;;;;;;5.93;3.38;;;;;;;13.81;66.79;98412.06;4981079;28;20105;-61
2021/05/27 06:20:14;;;;;;;8.68;3.97;;;;;;;13.82;67.87;98398.84;4982724;28;20463;-60
2021/05/27 06:22:40;;;;;;;7.38;3.53;;;;;;;13.87;67.65;98402.72;4978994;28;20109;-61
2021/05/27 06:25:06;;;;;;;5.72;3.50;;;;;;;13.72;68.09;98358.22;4980944;28;20049;-62
2021/05/27 06:27:31;;;;;;;6.38;3.70;;;;;;;13.69;67.53;98366.38;4965257;28;20034;-59
2021/05/27 06:29:57;;;;;;;6.22;3.40;;;;;;;13.99;67.04;98407.41;4986153;28;20028;-58
2021/05/27 06:32:22;;;;;;;7.93;4.05;;;;;;;14.01;67.68;98407.25;4976956;28;20036;-62
2021/05/27 06:34:52;;;;;;;6.28;3.75;;;;;;;13.99;66.86;98409.22;4977826;28;20026;-62
2021/05/27 06:37:18;;;;;;;8.48;3.92;;;;;;;13.94;66.92;98401.88;4975664;28;20372;-63
2021/05/27 06:39:44;;;;;;;6.78;3.80;;;;;;;14.06;67.18;98407.53;4978383;28;20033;-61
2021/05/27 06:42:10;;;;;;;9.57;4.00;;;;;;;13.92;67.65;98382.94;4988664;28;20455;-61
2021/05/27 06:44:35;;;;;;;7.22;3.80;;;;;;;14.12;67.29;98404.22;4980010;28;20629;-62
2021/05/27 06:47:01;;;;;;;5.55;3.25;;;;;;;14.18;67.85;98392.25;4972709;28;20860;-61
2021/05/27 06:49:26;;;;;;;6.35;3.83;;;;;;;14.34;68.36;98396.59;4980101;28;20034;-60
2021/05/27 06:51:55;;;;;;;7.18;3.60;;;;;;;14.33;69.06;98398.41;4966844;28;20096;-59
2021/05/27 06:54:21;;;;;;;6.57;3.78;;;;;;;14.25;67.07;98390.59;4979651;28;20038;-62
2021/05/27 06:56:46;;;;;;;7.30;3.85;;;;;;;14.26;66.83;98396.66;4977778;28;20034;-58
2021/05/27 06:59:12;;;;;;;7.13;3.60;;;;;;;14.40;65.12;98399.31;4980642;28;20026;-62
2021/05/27 07:01:37;;;;;;;6.75;3.63;;;;;;;14.48;66.29;98397.66;4961394;28;20038;-62
2021/05/27 07:04:03;;;;;;;8.57;3.42;;;;;;;14.35;65.05;98369.47;4978315;28;20030;-58
2021/05/27 07:06:28;;;;;;;9.35;3.40;;;;;;;14.48;65.33;98392.41;4980112;28;20044;-61
2021/05/27 07:08:53;;;;;;;9.25;3.75;;;;;;;14.59;66.58;98400.69;4980593;28;20030;-60
2021/05/27 07:11:19;;;;;;;8.05;3.78;;;;;;;14.60;65.72;98386.63;4985207;28;20540;-61
2021/05/27 07:13:44;;;;;;;7.68;3.60;;;;;;;14.22;64.76;98347.31;4979137;28;20027;-61
2021/05/27 07:16:10;;;;;;;7.88;3.83;;;;;;;14.49;65.88;98381.75;4980999;28;20042;-62
2021/05/27 07:18:36;;;;;;;8.70;3.90;;;;;;;14.50;65.98;98375.53;4980046;28;20090;-61
2021/05/27 07:21:02;;;;;;;7.05;3.55;;;;;;;14.37;65.63;98391.00;4980510;28;20101;-57
2021/05/27 07:23:27;;;;;;;7.53;3.42;;;;;;;14.39;65.26;98394.25;4975590;28;20022;-61
2021/05/27 07:25:52;;;;;;;5.97;3.28;;;;;;;14.45;64.61;98392.75;4980540;28;20542;-61
2021/05/27 07:28:22;;;;;;;8.65;3.33;;;;;;;14.47;63.16;98393.38;4977868;28;20035;-59
2021/05/27 07:30:47;;;;;;;8.13;3.28;;;;;;;14.57;63.27;98407.91;4982353;28;20030;-62
2021/05/27 07:33:13;;;;;;;10.82;3.45;;;;;;;14.51;64.56;98397.28;4974811;28;20797;-61
2021/05/27 07:35:38;;;;;;;6.20;2.97;;;;;;;14.51;62.81;98387.66;4977303;28;20027;-62
2021/05/27 07:38:04;;;;;;;7.82;2.90;;;;;;;14.72;62.06;98387.00;4975457;28;20066;-58
2021/05/27 07:40:29;;;;;;;8.15;3.00;;;;;;;15.22;61.41;98384.72;4979698;28;20759;-61
2021/05/27 07:42:56;;;;;;;7.13;3.03;;;;;;;16.02;60.24;98387.56;4975175;28;20026;-61
2021/05/27 07:45:22;;;;;;;10.73;3.60;;;;;;;16.36;57.82;98383.50;4983277;28;20053;-61
2021/05/27 07:47:47;;;;;;;6.82;3.25;;;;;;;16.86;56.22;98387.78;4983683;28;20030;-62
2021/05/27 07:50:13;;;;;;;6.80;3.38;;;;;;;16.83;55.05;98358.47;4984804;28;20477;-61
2021/05/27 07:52:38;;;;;;;7.93;2.58;;;;;;;17.55;53.36;98385.38;4964379;28;20054;-62
2021/05/27 07:55:05;;;;;;;5.47;2.83;;;;;;;17.92;53.10;98376.25;4985999;28;20053;-58
2021/05/27 07:57:31;;;;;;;7.57;3.42;;;;;;;18.37;51.09;98384.44;4980952;28;20489;-61
2021/05/27 07:59:56;;;;;;;7.07;3.30;;;;;;;18.58;49.93;98359.78;4981272;28;20042;-60
2021/05/27 08:02:22;;;;;;;7.55;3.20;;;;;;;18.73;49.32;98367.47;4984938;28;20034;-62
2021/05/27 08:04:48;;;;;;;10.75;3.42;;;;;;;18.75;48.89;98372.53;4976120;28;20034;-61
2021/05/27 08:07:13;;;;;;;8.05;3.15;;;;;;;18.74;49.88;98352.47;4984642;28;20035;-60
2021/05/27 08:09:39;;;;;;;7.15;3.50;;;;;;;19.01;48.68;98364.63;4984176;28;20052;-60
2021/05/27 08:12:06;;;;;;;9.18;3.70;;;;;;;18.71;48.66;98334.44;4983421;28;20030;-60
2021/05/27 08:14:32;;;;;;;8.07;3.45;;;;;;;19.13;48.77;98370.09;4978288;28;20129;-62
2021/05/27 08:16:57;;;;;;;7.20;3.33;;;;;;;19.32;48.45;98367.59;4981171;28;20810;-61
2021/05/27 08:19:23;;;;;;;8.27;3.17;;;;;;;19.31;49.01;98352.78;4985651;28;20034;-61
2021/05/27 08:21:48;;;;;;;6.95;3.60;;;;;;;19.32;49.26;98357.06;4979825;28;20040;-61
2021/05/27 08:24:14;;;;;;;7.30;3.20;;;;;;;19.50;48.99;98351.13;4981212;28;20105;-61
2021/05/27 08:26:39;;;;;;;7.97;3.80;;;;;;;20.21;45.57;98358.09;4976420;28;20038;-60
2021/05/27 08:29:05;;;;;;;8.07;3.90;;;;;;;20.53;44.76;98352.78;4997367;28;20432;-61
2021/05/27 08:31:31;;;;;;;7.97;3.80;;;;;;;20.87;44.48;98348.88;4979690;28;20429;-61
2021/05/27 08:33:56;;;;;;;7.50;4.10;;;;;;;20.74;44.37;98309.38;4980339;28;20038;-60
2021/05/27 08:36:22;;;;;;;7.13;3.85;;;;;;;21.06;44.29;98317.19;4978213;28;20031;-61
2021/05/27 08:38:48;;;;;;;6.90;3.78;;;;;;;21.44;43.85;98337.31;4984558;28;20042;-61
2021/05/27 08:41:18;;;;;;;11.93;3.42;;;;;;;21.64;44.26;98297.41;4980021;28;20097;-61
2021/05/27 08:43:43;;;;;;;10.40;3.67;;;;;;;22.10;41.73;98330.34;4972339;28;20121;-62
2021/05/27 08:46:09;;;;;;;10.48;4.07;;;;;;;22.41;39.26;98333.78;4964667;28;20866;-62
2021/05/27 08:48:34;;;;;;;12.43;3.70;;;;;;;22.50;38.49;98334.28;4980204;28;20027;-61
2021/05/27 08:51:00;;;;;;;10.45;4.18;;;;;;;22.58;37.38;98302.97;4979593;28;20113;-61
2021/05/27 08:53:26;;;;;;;10.23;4.70;;;;;;;22.93;36.80;98335.78;4980311;28;20516;-61
2021/05/27 08:55:52;;;;;;;9.20;4.00;;;;;;;23.31;35.52;98342.44;4980822;28;20065;-61
2021/05/27 08:58:18;;;;;;;7.35;3.70;;;;;;;23.45;37.74;98330.53;4984142;28;20069;-59
2021/05/27 09:00:43;;;;;;;8.43;4.22;;;;;;;23.44;35.83;98331.59;4978943;28;20037;-59
2021/05/27 09:03:10;;;;;;;9.85;3.83;;;;;;;23.25;37.73;98338.09;4982989;28;20029;-60
2021/05/27 09:05:37;;;;;;;7.90;4.25;;;;;;;23.83;36.40;98339.78;4979535;28;20097;-60
2021/05/27 09:08:22;;;;;;;8.18;4.28;;;;;;;23.91;35.59;98335.94;4977935;28;20042;-59
2021/05/27 09:10:48;;;;;;;8.80;4.50;;;;;;;23.88;35.48;98341.75;4980993;28;20026;-60
2021/05/27 09:13:18;;;;;;;8.23;4.45;;;;;;;23.98;34.65;98329.47;4984208;28;20540;-60
2021/05/27 09:15:45;;;;;;;9.70;3.92;;;;;;;24.05;34.65;98339.91;4983016;28;20461;-59
2021/05/27 09:18:11;;;;;;;9.90;4.20;;;;;;;24.32;33.94;98334.00;4980914;28;20022;-61
2021/05/27 09:20:37;;;;;;;7.47;4.30;;;;;;;24.54;32.93;98326.13;4979217;28;20030;-60
2021/05/27 09:23:20;;;;;;;7.82;4.35;;;;;;;24.25;32.28;98331.50;4978792;28;20027;-59
2021/05/27 09:25:56;;;;;;;9.00;3.97;;;;;;;24.32;32.62;98339.31;4983924;28;20034;-60
2021/05/27 09:28:23;;;;;;;8.35;3.90;;;;;;;24.29;32.62;98331.81;4991838;28;20030;-58
2021/05/27 09:30:53;;;;;;;10.02;4.07;;;;;;;24.23;34.87;98332.78;4981031;28;20440;-59
2021/05/27 09:33:29;;;;;;;7.95;4.10;;;;;;;24.51;32.82;98334.56;4977469;28;20030;-59
2021/05/27 09:36:21;;;;;;;9.40;3.55;;;;;;;24.71;32.67;98334.09;4977450;28;20027;-59
2021/05/27 09:38:53;;;;;;;7.78;3.67;;;;;;;23.99;33.08;98336.38;4973220;28;20038;-59
2021/05/27 09:41:26;;;;;;;7.90;3.33;;;;;;;24.12;34.90;98291.97;4992920;28;20733;-61
2021/05/27 09:44:02;;;;;;;7.13;3.80;;;;;;;24.11;33.15;98316.91;4982072;28;20030;-61
2021/05/27 09:46:31;;;;;;;7.22;3.70;;;;;;;23.95;34.84;98315.84;4978271;28;20027;-60
2021/05/27 09:49:08;;;;;;;9.10;3.83;;;;;;;23.49;34.84;98314.94;4983936;28;20432;-60
2021/05/27 09:51:35;;;;;;;7.57;3.55;;;;;;;23.09;36.76;98319.22;4973802;28;20034;-59
2021/05/27 09:54:00;;;;;;;7.28;3.40;;;;;;;23.13;37.19;98309.75;4979132;28;20036;-60
2021/05/27 09:56:40;;;;;;;7.85;3.42;;;;;;;22.81;37.37;98303.97;4973747;28;20042;-60
2021/05/27 09:59:07;;;;;;;10.18;3.60;;;;;;;22.46;36.60;98280.94;4984218;28;20181;-60
2021/05/27 10:01:32;;;;;;;10.75;3.55;;;;;;;22.38;37.23;98266.22;4970669;28;20051;-60
2021/05/27 10:04:11;;;;;;;8.15;3.40;;;;;;;22.69;37.74;98308.47;4975825;28;20504;-59
2021/05/27 10:06:36;;;;;;;7.70;3.80;;;;;;;22.80;38.25;98300.53;4971456;28;20042;-59
2021/05/27 10:09:04;;;;;;;8.95;3.28;;;;;;;22.60;37.54;98253.19;4985491;28;20030;-59
2021/05/27 10:11:30;;;;;;;7.82;3.53;;;;;;;22.82;38.49;98303.75;4967689;28;20045;-59
2021/05/27 10:13:56;;;;;;;6.70;3.25;;;;;;;22.53;38.42;98281.63;4975237;28;20038;-60
2021/05/27 10:16:23;;;;;;;9.98;3.30;;;;;;;22.76;39.15;98299.38;4976017;28;20046;-60
2021/05/27 10:18:49;;;;;;;8.35;3.78;;;;;;;22.52;38.99;98295.91;4980696;28;20030;-59
2021/05/27 10:21:15;;;;;;;8.32;3.28;;;;;;;22.76;37.56;98298.56;4980809;28;21496;-61
2021/05/27 10:23:41;;;;;;;8.68;3.70;;;;;;;22.56;39.03;98285.66;4982772;28;20038;-60
2021/05/27 10:26:07;;;;;;;8.93;3.63;;;;;;;22.54;38.24;98262.03;4974942;28;20400;-60
2021/05/27 10:28:32;;;;;;;9.05;3.20;;;;;;;22.61;38.42;98286.56;4979148;28;20593;-61
2021/05/27 10:30:58;;;;;;;7.68;2.83;;;;;;;22.41;39.88;98284.28;4978414;28;20030;-60
2021/05/27 10:33:25;;;;;;;9.13;3.53;;;;;;;22.22;39.65;98286.19;4978216;28;20482;-60
2021/05/27 10:35:50;;;;;;;7.60;3.63;;;;;;;22.16;40.47;98284.47;4979732;28;20030;-59
2021/05/27 10:38:17;;;;;;;7.55;3.42;;;;;;;21.98;41.05;98280.03;4976546;28;20041;-60
2021/05/27 10:40:45;;;;;;;7.78;3.67;;;;;;;21.60;39.95;98248.63;4978982;28;20116;-60
2021/05/27 10:43:13;;;;;;;7.15;2.97;;;;;;;21.81;40.93;98293.13;4976056;28;20508;-60
2021/05/27 10:45:58;;;;;;;7.30;3.20;;;;;;;21.66;39.94;98288.22;4976840;28;20026;-60
2021/05/27 10:48:25;;;;;;;8.77;3.17;;;;;;;21.34;40.21;98263.78;4969308;28;20739;-60
2021/05/27 10:53:38;;;;;;;6.13;2.85;;;;;;;21.48;41.28;98291.72;4970657;28;20047;-61
2021/05/27 10:56:05;;;;;;;7.07;3.15;;;;;;;21.43;41.06;98296.84;4970280;28;20057;-59
2021/05/27 10:58:46;;;;;;;6.07;2.63;;;;;;;21.49;40.46;98306.53;4976967;28;20072;-60
2021/05/27 11:01:33;;;;;;;7.43;3.08;;;;;;;21.27;40.86;98260.44;4977108;28;20040;-61
2021/05/27 11:03:59;;;;;;;10.20;3.72;;;;;;;21.64;39.66;98276.25;4975051;28;20108;-60
2021/05/27 11:06:30;;;;;;;6.95;3.10;;;;;;;21.53;40.53;98280.47;4975648;28;20030;-60
2021/05/27 11:09:16;;;;;;;8.35;3.40;;;;;;;21.64;41.19;98279.69;4976520;28;20047;-59
2021/05/27 11:11:49;;;;;;;7.57;3.28;;;;;;;21.47;41.47;98225.81;4978023;28;20109;-59
2021/05/27 11:14:18;;;;;;;10.35;3.42;;;;;;;21.79;41.11;98273.19;4977343;28;20528;-59
2021/05/27 11:17:11;;;;;;;6.80;3.15;;;;;;;21.66;40.90;98263.59;4979637;28;20393;-61
2021/05/27 11:25:08;;;;;;;7.43;3.33;;;;;;;21.76;39.70;98271.81;4975979;28;20038;-59
2021/05/27 11:27:39;;;;;;;7.72;3.50;;;;;;;21.66;40.46;98260.94;4979095;28;20049;-61
2021/05/27 11:30:27;;;;;;;8.82;3.53;;;;;;;21.64;40.16;98263.03;4976538;28;20026;-59
2021/05/27 11:33:07;;;;;;;7.50;3.10;;;;;;;21.59;40.45;98244.38;4979786;28;20646;-60
2021/05/27 11:35:39;;;;;;;6.75;3.38;;;;;;;21.61;40.34;98263.47;4980468;28;20051;-59
2021/05/27 11:38:12;;;;;;;8.10;3.20;;;;;;;21.66;41.13;98253.03;4982059;28;20045;-64
2021/05/27 11:40:49;;;;;;;8.88;3.42;;;;;;;21.81;39.38;98260.53;4976915;28;20197;-65
2021/05/27 11:43:16;;;;;;;7.90;3.42;;;;;;;21.81;39.77;98258.72;4972832;28;20032;-63
2021/05/27 11:45:46;;;;;;;6.55;2.88;;;;;;;21.80;39.17;98248.34;4975987;28;20057;-63
2021/05/27 11:48:17;;;;;;;7.32;3.05;;;;;;;21.87;39.43;98241.91;4977000;28;20061;-66
2021/05/27 11:50:42;;;;;;;7.97;3.10;;;;;;;22.11;37.48;98244.63;4979872;28;20525;-64